sensor_id;sensor_type;location;lat;lon;timestamp;pressure;altitude;pressure_sealevel;temperature;humidity
31717;BME280;18301;51.076;17.046;2023-02-22T00:01:48;100217.91;;;8.04;78.05
31717;BME280;18301;51.076;17.046;2023-02-22T00:07:11;100225.56;;;8.11;78.13
31717;BME280;18301;51.076;17.046;2023-02-22T00:12:15;100231.34;;;8.04;78.34
31717;BME280;18301;51.076;17.046;2023-02-22T00:17:16;100236.72;;;8.04;78.54
31717;BME280;18301;51.076;17.046;2023-02-22T00:22:20;100238.84;;;7.99;78.75
31717;BME280;18301;51.076;17.046;2023-02-22T00:27:22;100243.38;;;7.99;78.79
31717;BME280;18301;51.076;17.046;2023-02-22T00:32:23;100243.09;;;7.89;78.51
31717;BME280;18301;51.076;17.046;2023-02-22T00:37:25;100244.09;;;7.74;79.02
31717;BME280;18301;51.076;17.046;2023-02-22T00:42:26;100251.59;;;7.69;79.02
31717;BME280;18301;51.076;17.046;2023-02-22T00:47:28;100250.34;;;7.60;79.24
31717;BME280;18301;51.076;17.046;2023-02-22T00:52:30;100253.91;;;7.60;79.42
31717;BME280;18301;51.076;17.046;2023-02-22T00:57:32;100251.44;;;7.43;79.85
31717;BME280;18301;51.076;17.046;2023-02-22T01:02:38;100256.06;;;7.27;80.32
31717;BME280;18301;51.076;17.046;2023-02-22T01:07:40;100255.06;;;7.13;81.64
31717;BME280;18301;51.076;17.046;2023-02-22T01:12:41;100262.84;;;7.18;82.31
31717;BME280;18301;51.076;17.046;2023-02-22T01:17:43;100251.44;;;7.14;82.93
31717;BME280;18301;51.076;17.046;2023-02-22T01:22:46;100247.38;;;7.07;83.54
31717;BME280;18301;51.076;17.046;2023-02-22T01:27:49;100250.28;;;7.19;83.34
31717;BME280;18301;51.076;17.046;2023-02-22T01:32:51;100253.91;;;7.32;83.15
31717;BME280;18301;51.076;17.046;2023-02-22T01:37:53;100253.16;;;7.44;83.00
31717;BME280;18301;51.076;17.046;2023-02-22T01:43:00;100251.03;;;7.49;82.61
31717;BME280;18301;51.076;17.046;2023-02-22T01:48:12;100257.94;;;7.53;82.46
31717;BME280;18301;51.076;17.046;2023-02-22T01:53:17;100242.03;;;7.50;82.11
31717;BME280;18301;51.076;17.046;2023-02-22T01:58:20;100248.34;;;7.49;81.80
31717;BME280;18301;51.076;17.046;2023-02-22T02:03:25;100241.66;;;7.42;81.72
31717;BME280;18301;51.076;17.046;2023-02-22T02:08:56;100243.75;;;7.37;81.67
31717;BME280;18301;51.076;17.046;2023-02-22T02:13:59;100241.28;;;7.34;81.60
31717;BME280;18301;51.076;17.046;2023-02-22T02:19:02;100239.25;;;7.23;81.55
31717;BME280;18301;51.076;17.046;2023-02-22T02:24:37;100237.84;;;7.18;81.62
31717;BME280;18301;51.076;17.046;2023-02-22T02:35:31;100253.44;;;7.25;81.41
31717;BME280;18301;51.076;17.046;2023-02-22T02:41:05;100251.53;;;7.27;81.52
31717;BME280;18301;51.076;17.046;2023-02-22T02:46:16;100244.16;;;7.31;81.44
31717;BME280;18301;51.076;17.046;2023-02-22T02:51:20;100240.69;;;7.43;80.96
31717;BME280;18301;51.076;17.046;2023-02-22T02:56:23;100242.78;;;7.52;80.65
31717;BME280;18301;51.076;17.046;2023-02-22T03:01:38;100237.03;;;7.44;80.50
31717;BME280;18301;51.076;17.046;2023-02-22T03:17:17;100243.97;;;7.48;80.34
31717;BME280;18301;51.076;17.046;2023-02-22T03:22:34;100250.84;;;7.52;80.14
31717;BME280;18301;51.076;17.046;2023-02-22T03:27:52;100241.75;;;7.55;79.92
31717;BME280;18301;51.076;17.046;2023-02-22T03:33:00;100249.78;;;7.55;79.84
31717;BME280;18301;51.076;17.046;2023-02-22T03:38:06;100240.09;;;7.52;79.70
31717;BME280;18301;51.076;17.046;2023-02-22T03:43:13;100250.25;;;7.61;79.38
31717;BME280;18301;51.076;17.046;2023-02-22T03:48:25;100250.25;;;7.61;79.10
31717;BME280;18301;51.076;17.046;2023-02-22T03:53:31;100254.13;;;7.57;79.09
31717;BME280;18301;51.076;17.046;2023-02-22T03:58:34;100259.69;;;7.54;79.26
31717;BME280;18301;51.076;17.046;2023-02-22T04:03:36;100259.47;;;7.43;79.23
31717;BME280;18301;51.076;17.046;2023-02-22T04:08:38;100265.44;;;7.48;79.10
31717;BME280;18301;51.076;17.046;2023-02-22T04:13:39;100263.09;;;7.56;78.74
31717;BME280;18301;51.076;17.046;2023-02-22T04:18:41;100262.63;;;7.64;78.59
31717;BME280;18301;51.076;17.046;2023-02-22T04:23:43;100261.19;;;7.58;78.78
31717;BME280;18301;51.076;17.046;2023-02-22T04:28:44;100257.16;;;7.66;78.87
31717;BME280;18301;51.076;17.046;2023-02-22T04:33:46;100257.94;;;7.68;78.85
31717;BME280;18301;51.076;17.046;2023-02-22T04:38:47;100249.66;;;7.71;78.96
31717;BME280;18301;51.076;17.046;2023-02-22T04:43:49;100251.59;;;7.69;78.75
31717;BME280;18301;51.076;17.046;2023-02-22T04:48:50;100253.13;;;7.73;78.92
31717;BME280;18301;51.076;17.046;2023-02-22T04:53:52;100254.66;;;7.77;78.98
31717;BME280;18301;51.076;17.046;2023-02-22T04:58:53;100243.91;;;7.77;79.09
31717;BME280;18301;51.076;17.046;2023-02-22T05:03:54;100238.34;;;7.80;79.31
31717;BME280;18301;51.076;17.046;2023-02-22T05:08:56;100245.22;;;7.84;79.28
31717;BME280;18301;51.076;17.046;2023-02-22T05:13:57;100249.09;;;7.80;79.69
31717;BME280;18301;51.076;17.046;2023-02-22T05:18:59;100246.19;;;7.83;79.56
31717;BME280;18301;51.076;17.046;2023-02-22T05:24:01;100240.66;;;7.72;79.83
31717;BME280;18301;51.076;17.046;2023-02-22T05:29:02;100237.97;;;7.72;79.65
31717;BME280;18301;51.076;17.046;2023-02-22T05:34:03;100237.22;;;7.70;80.42
31717;BME280;18301;51.076;17.046;2023-02-22T05:39:05;100243.44;;;7.70;80.46
31717;BME280;18301;51.076;17.046;2023-02-22T05:44:06;100248.50;;;7.75;80.42
31717;BME280;18301;51.076;17.046;2023-02-22T05:49:08;100252.53;;;7.82;80.66
31717;BME280;18301;51.076;17.046;2023-02-22T05:54:09;100259.44;;;7.86;80.85
31717;BME280;18301;51.076;17.046;2023-02-22T05:59:11;100258.25;;;7.90;80.84
31717;BME280;18301;51.076;17.046;2023-02-22T06:04:12;100266.97;;;7.94;80.84
31717;BME280;18301;51.076;17.046;2023-02-22T06:09:14;100269.59;;;7.95;80.97
31717;BME280;18301;51.076;17.046;2023-02-22T06:14:15;100268.00;;;8.05;81.03
31717;BME280;18301;51.076;17.046;2023-02-22T06:19:17;100264.84;;;8.13;80.62
31717;BME280;18301;51.076;17.046;2023-02-22T06:24:19;100274.34;;;8.04;80.60
31717;BME280;18301;51.076;17.046;2023-02-22T06:29:22;100279.16;;;7.99;81.07
31717;BME280;18301;51.076;17.046;2023-02-22T06:34:24;100281.66;;;8.02;81.22
31717;BME280;18301;51.076;17.046;2023-02-22T06:39:25;100286.25;;;8.00;80.87
31717;BME280;18301;51.076;17.046;2023-02-22T06:44:27;100290.47;;;8.04;81.00
31717;BME280;18301;51.076;17.046;2023-02-22T06:49:28;100293.91;;;8.06;80.91
31717;BME280;18301;51.076;17.046;2023-02-22T06:54:30;100301.69;;;8.11;81.13
31717;BME280;18301;51.076;17.046;2023-02-22T06:59:31;100310.97;;;8.20;80.73
31717;BME280;18301;51.076;17.046;2023-02-22T07:04:33;100315.19;;;8.38;80.28
31717;BME280;18301;51.076;17.046;2023-02-22T07:09:37;100323.25;;;8.38;80.13
31717;BME280;18301;51.076;17.046;2023-02-22T07:14:38;100312.81;;;8.46;79.76
31717;BME280;18301;51.076;17.046;2023-02-22T07:19:40;100316.75;;;8.55;79.48
31717;BME280;18301;51.076;17.046;2023-02-22T07:24:41;100322.97;;;8.56;79.42
31717;BME280;18301;51.076;17.046;2023-02-22T07:29:43;100328.06;;;8.60;79.48
31717;BME280;18301;51.076;17.046;2023-02-22T07:34:44;100330.53;;;8.63;79.57
31717;BME280;18301;51.076;17.046;2023-02-22T07:39:46;100326.38;;;8.72;79.34
31717;BME280;18301;51.076;17.046;2023-02-22T07:44:47;100332.91;;;8.68;79.21
31717;BME280;18301;51.076;17.046;2023-02-22T07:49:49;100341.59;;;8.59;79.59
31717;BME280;18301;51.076;17.046;2023-02-22T07:54:50;100342.16;;;8.64;79.76
31717;BME280;18301;51.076;17.046;2023-02-22T07:59:52;100334.31;;;8.61;80.01
31717;BME280;18301;51.076;17.046;2023-02-22T08:04:53;100335.75;;;8.79;79.84
31717;BME280;18301;51.076;17.046;2023-02-22T08:09:55;100338.81;;;9.00;79.37
31717;BME280;18301;51.076;17.046;2023-02-22T08:14:56;100332.59;;;8.99;79.38
31717;BME280;18301;51.076;17.046;2023-02-22T08:19:58;100327.50;;;8.95;78.60
31717;BME280;18301;51.076;17.046;2023-02-22T08:24:59;100334.72;;;8.94;78.88
31717;BME280;18301;51.076;17.046;2023-02-22T08:30:01;100333.47;;;9.13;77.30
31717;BME280;18301;51.076;17.046;2023-02-22T08:35:02;100333.25;;;9.16;76.92
31717;BME280;18301;51.076;17.046;2023-02-22T08:40:04;100333.59;;;9.24;76.47
31717;BME280;18301;51.076;17.046;2023-02-22T08:45:06;100320.34;;;9.47;76.19
31717;BME280;18301;51.076;17.046;2023-02-22T08:50:13;100317.66;;;9.47;75.57
31717;BME280;18301;51.076;17.046;2023-02-22T08:55:18;100318.84;;;9.55;73.20
31717;BME280;18301;51.076;17.046;2023-02-22T09:00:21;100315.56;;;9.63;73.76
31717;BME280;18301;51.076;17.046;2023-02-22T09:05:25;100320.75;;;9.66;71.93
31717;BME280;18301;51.076;17.046;2023-02-22T09:10:29;100320.09;;;9.62;72.30
31717;BME280;18301;51.076;17.046;2023-02-22T09:15:32;100311.03;;;9.63;72.37
31717;BME280;18301;51.076;17.046;2023-02-22T09:20:36;100331.84;;;9.74;71.05
31717;BME280;18301;51.076;17.046;2023-02-22T09:25:37;100313.44;;;9.68;70.72
31717;BME280;18301;51.076;17.046;2023-02-22T09:30:41;100322.47;;;9.80;70.35
31717;BME280;18301;51.076;17.046;2023-02-22T09:35:44;100316.53;;;9.75;66.66
31717;BME280;18301;51.076;17.046;2023-02-22T09:40:51;100319.25;;;9.62;69.68
31717;BME280;18301;51.076;17.046;2023-02-22T09:51:16;100316.22;;;9.66;67.21
31717;BME280;18301;51.076;17.046;2023-02-22T09:56:19;100328.72;;;9.80;68.67
31717;BME280;18301;51.076;17.046;2023-02-22T10:06:27;100316.66;;;9.73;67.89
31717;BME280;18301;51.076;17.046;2023-02-22T10:11:43;100315.00;;;9.96;67.23
31717;BME280;18301;51.076;17.046;2023-02-22T10:16:58;100327.94;;;10.04;67.14
31717;BME280;18301;51.076;17.046;2023-02-22T10:32:44;100316.84;;;10.32;65.90
31717;BME280;18301;51.076;17.046;2023-02-22T10:37:55;100316.22;;;10.53;65.19
31717;BME280;18301;51.076;17.046;2023-02-22T10:43:04;100305.78;;;10.72;64.69
31717;BME280;18301;51.076;17.046;2023-02-22T10:48:15;100311.16;;;10.72;62.50
31717;BME280;18301;51.076;17.046;2023-02-22T10:53:18;100311.41;;;10.69;62.94
31717;BME280;18301;51.076;17.046;2023-02-22T10:58:20;100307.19;;;10.65;63.34
31717;BME280;18301;51.076;17.046;2023-02-22T11:03:22;100296.91;;;10.70;63.48
31717;BME280;18301;51.076;17.046;2023-02-22T11:08:29;100290.38;;;10.62;61.99
31717;BME280;18301;51.076;17.046;2023-02-22T11:13:37;100290.69;;;10.46;61.72
31717;BME280;18301;51.076;17.046;2023-02-22T11:18:39;100299.84;;;10.43;61.51
31717;BME280;18301;51.076;17.046;2023-02-22T11:23:41;100276.72;;;10.52;63.75
31717;BME280;18301;51.076;17.046;2023-02-22T11:28:50;100290.69;;;10.46;63.50
31717;BME280;18301;51.076;17.046;2023-02-22T11:33:57;100289.13;;;10.54;63.29
31717;BME280;18301;51.076;17.046;2023-02-22T11:38:59;100289.00;;;10.56;62.24
31717;BME280;18301;51.076;17.046;2023-02-22T11:44:13;100281.78;;;10.56;62.98
31717;BME280;18301;51.076;17.046;2023-02-22T11:49:34;100281.66;;;10.58;63.54
31717;BME280;18301;51.076;17.046;2023-02-22T12:15:51;100275.56;;;10.67;61.50
31717;BME280;18301;51.076;17.046;2023-02-22T12:20:59;100275.81;;;10.64;62.54
31717;BME280;18301;51.076;17.046;2023-02-22T12:26:11;100271.63;;;11.06;61.05
31717;BME280;18301;51.076;17.046;2023-02-22T12:31:22;100268.56;;;11.00;60.99
31717;BME280;18301;51.076;17.046;2023-02-22T12:36:34;100275.91;;;10.98;59.17
31717;BME280;18301;51.076;17.046;2023-02-22T12:41:45;100271.50;;;10.97;59.94
31717;BME280;18301;51.076;17.046;2023-02-22T12:46:50;100270.00;;;10.93;60.19
31717;BME280;18301;51.076;17.046;2023-02-22T12:57:30;100274.31;;;10.95;60.07
31717;BME280;18301;51.076;17.046;2023-02-22T13:02:42;100265.59;;;10.92;60.25
31717;BME280;18301;51.076;17.046;2023-02-22T13:07:58;100263.63;;;11.05;60.12
31717;BME280;18301;51.076;17.046;2023-02-22T13:13:26;100257.00;;;10.98;59.43
31717;BME280;18301;51.076;17.046;2023-02-22T13:18:53;100255.69;;;11.03;59.42
31717;BME280;18301;51.076;17.046;2023-02-22T13:29:51;100253.06;;;11.02;58.39
31717;BME280;18301;51.076;17.046;2023-02-22T13:35:09;100255.69;;;11.03;58.95
31717;BME280;18301;51.076;17.046;2023-02-22T13:45:45;100254.34;;;11.09;58.89
31717;BME280;18301;51.076;17.046;2023-02-22T13:56:25;100256.06;;;11.10;58.13
31717;BME280;18301;51.076;17.046;2023-02-22T14:01:50;100261.69;;;11.07;57.08
31717;BME280;18301;51.076;17.046;2023-02-22T14:07:02;100256.88;;;10.88;57.77
31717;BME280;18301;51.076;17.046;2023-02-22T14:12:04;100254.56;;;11.06;57.95
31717;BME280;18301;51.076;17.046;2023-02-22T14:17:21;100251.97;;;11.04;58.26
31717;BME280;18301;51.076;17.046;2023-02-22T14:22:27;100249.19;;;11.06;57.73
31717;BME280;18301;51.076;17.046;2023-02-22T14:27:38;100237.13;;;10.99;57.53
31717;BME280;18301;51.076;17.046;2023-02-22T14:32:40;100242.34;;;11.24;55.34
31717;BME280;18301;51.076;17.046;2023-02-22T14:37:44;100231.44;;;10.79;56.37
31717;BME280;18301;51.076;17.046;2023-02-22T14:42:57;100245.13;;;10.65;56.51
31717;BME280;18301;51.076;17.046;2023-02-22T14:48:23;100245.41;;;10.38;57.22
31717;BME280;18301;51.076;17.046;2023-02-22T14:53:41;100242.88;;;10.48;57.28
31717;BME280;18301;51.076;17.046;2023-02-22T14:58:48;100252.06;;;10.45;57.59
31717;BME280;18301;51.076;17.046;2023-02-22T15:03:50;100246.41;;;10.72;56.89
31717;BME280;18301;51.076;17.046;2023-02-22T15:09:20;100241.41;;;10.55;57.69
31717;BME280;18301;51.076;17.046;2023-02-22T15:14:32;100240.91;;;10.50;55.98
31717;BME280;18301;51.076;17.046;2023-02-22T15:19:39;100242.75;;;10.25;56.82
31717;BME280;18301;51.076;17.046;2023-02-22T15:24:41;100249.22;;;10.23;56.70
31717;BME280;18301;51.076;17.046;2023-02-22T15:29:43;100245.16;;;10.17;56.68
31717;BME280;18301;51.076;17.046;2023-02-22T15:34:45;100234.66;;;10.01;57.14
31717;BME280;18301;51.076;17.046;2023-02-22T15:39:47;100239.19;;;10.01;57.29
31717;BME280;18301;51.076;17.046;2023-02-22T15:44:50;100232.72;;;9.90;57.39
31717;BME280;18301;51.076;17.046;2023-02-22T15:50:13;100239.88;;;9.91;56.82
31717;BME280;18301;51.076;17.046;2023-02-22T15:55:21;100238.34;;;9.87;56.91
31717;BME280;18301;51.076;17.046;2023-02-22T16:00:35;100234.50;;;9.79;57.53
31717;BME280;18301;51.076;17.046;2023-02-22T16:05:41;100246.38;;;9.76;57.71
31717;BME280;18301;51.076;17.046;2023-02-22T16:11:02;100244.53;;;9.77;57.90
31717;BME280;18301;51.076;17.046;2023-02-22T16:16:20;100242.69;;;9.77;57.92
31717;BME280;18301;51.076;17.046;2023-02-22T16:21:22;100252.09;;;9.72;57.84
31717;BME280;18301;51.076;17.046;2023-02-22T16:26:34;100247.03;;;9.54;58.00
31717;BME280;18301;51.076;17.046;2023-02-22T16:31:38;100247.72;;;9.58;57.79
31717;BME280;18301;51.076;17.046;2023-02-22T16:36:45;100252.88;;;9.48;57.85
31717;BME280;18301;51.076;17.046;2023-02-22T16:41:49;100255.91;;;9.43;57.86
31717;BME280;18301;51.076;17.046;2023-02-22T16:46:55;100276.59;;;9.43;57.57
31717;BME280;18301;51.076;17.046;2023-02-22T16:51:58;100269.69;;;9.39;58.10
31717;BME280;18301;51.076;17.046;2023-02-22T16:57:03;100275.09;;;9.26;58.46
31717;BME280;18301;51.076;17.046;2023-02-22T17:02:11;100282.94;;;9.29;58.93
31717;BME280;18301;51.076;17.046;2023-02-22T17:07:21;100287.59;;;9.27;58.53
31717;BME280;18301;51.076;17.046;2023-02-22T17:12:30;100283.50;;;9.21;58.81
31717;BME280;18301;51.076;17.046;2023-02-22T17:17:32;100297.28;;;9.17;59.23
31717;BME280;18301;51.076;17.046;2023-02-22T17:22:33;100295.56;;;9.16;59.61
31717;BME280;18301;51.076;17.046;2023-02-22T17:27:35;100300.50;;;9.09;59.52
31717;BME280;18301;51.076;17.046;2023-02-22T17:32:36;100292.53;;;9.08;59.90
31717;BME280;18301;51.076;17.046;2023-02-22T17:37:38;100293.56;;;8.92;60.59
31717;BME280;18301;51.076;17.046;2023-02-22T17:42:41;100293.16;;;8.98;60.23
31717;BME280;18301;51.076;17.046;2023-02-22T17:47:43;100296.19;;;8.94;60.32
31717;BME280;18301;51.076;17.046;2023-02-22T17:52:45;100298.09;;;8.92;60.18
31717;BME280;18301;51.076;17.046;2023-02-22T17:57:52;100291.31;;;8.86;59.81
31717;BME280;18301;51.076;17.046;2023-02-22T18:03:09;100300.69;;;8.81;59.94
31717;BME280;18301;51.076;17.046;2023-02-22T18:08:11;100296.81;;;8.85;60.38
31717;BME280;18301;51.076;17.046;2023-02-22T18:13:15;100292.28;;;8.85;60.61
31717;BME280;18301;51.076;17.046;2023-02-22T18:18:19;100289.72;;;8.84;60.53
31717;BME280;18301;51.076;17.046;2023-02-22T18:23:22;100293.53;;;8.67;60.47
31717;BME280;18301;51.076;17.046;2023-02-22T18:28:28;100303.19;;;8.57;60.30
31717;BME280;18301;51.076;17.046;2023-02-22T18:33:31;100300.69;;;8.41;60.71
31717;BME280;18301;51.076;17.046;2023-02-22T18:38:32;100309.41;;;8.44;60.53
31717;BME280;18301;51.076;17.046;2023-02-22T18:43:34;100300.19;;;8.07;62.22
31717;BME280;18301;51.076;17.046;2023-02-22T18:48:37;100305.66;;;7.91;63.96
31717;BME280;18301;51.076;17.046;2023-02-22T18:53:40;100300.69;;;7.85;64.28
31717;BME280;18301;51.076;17.046;2023-02-22T18:58:47;100293.63;;;7.70;65.46
31717;BME280;18301;51.076;17.046;2023-02-22T19:03:52;100287.84;;;7.76;65.93
31717;BME280;18301;51.076;17.046;2023-02-22T19:08:54;100300.72;;;7.56;66.40
31717;BME280;18301;51.076;17.046;2023-02-22T19:13:56;100294.00;;;7.49;66.75
31717;BME280;18301;51.076;17.046;2023-02-22T19:18:58;100300.91;;;7.53;67.11
31717;BME280;18301;51.076;17.046;2023-02-22T19:24:00;100290.34;;;7.22;69.00
31717;BME280;18301;51.076;17.046;2023-02-22T19:29:02;100289.19;;;7.11;69.00
31717;BME280;18301;51.076;17.046;2023-02-22T19:34:10;100292.94;;;7.09;68.68
31717;BME280;18301;51.076;17.046;2023-02-22T19:39:17;100290.59;;;6.88;68.95
31717;BME280;18301;51.076;17.046;2023-02-22T19:44:19;100285.28;;;6.73;69.92
31717;BME280;18301;51.076;17.046;2023-02-22T19:49:22;100294.53;;;6.97;68.22
31717;BME280;18301;51.076;17.046;2023-02-22T19:54:29;100291.97;;;6.65;68.73
31717;BME280;18301;51.076;17.046;2023-02-22T19:59:30;100300.56;;;6.56;69.00
31717;BME280;18301;51.076;17.046;2023-02-22T20:04:31;100301.28;;;6.44;68.98
31717;BME280;18301;51.076;17.046;2023-02-22T20:09:34;100304.13;;;6.41;69.40
31717;BME280;18301;51.076;17.046;2023-02-22T20:14:43;100302.38;;;6.40;68.64
31717;BME280;18301;51.076;17.046;2023-02-22T20:19:46;100311.06;;;6.29;68.91
31717;BME280;18301;51.076;17.046;2023-02-22T20:24:49;100299.84;;;6.22;69.19
31717;BME280;18301;51.076;17.046;2023-02-22T20:29:50;100305.78;;;6.28;69.35
31717;BME280;18301;51.076;17.046;2023-02-22T20:34:52;100309.59;;;6.23;68.84
31717;BME280;18301;51.076;17.046;2023-02-22T20:39:53;100307.72;;;6.10;69.38
31717;BME280;18301;51.076;17.046;2023-02-22T20:44:54;100309.16;;;6.15;70.14
31717;BME280;18301;51.076;17.046;2023-02-22T20:50:01;100301.56;;;6.08;69.70
31717;BME280;18301;51.076;17.046;2023-02-22T20:55:05;100302.78;;;6.02;69.96
31717;BME280;18301;51.076;17.046;2023-02-22T21:00:13;100296.44;;;5.87;69.84
31717;BME280;18301;51.076;17.046;2023-02-22T21:05:14;100292.53;;;5.77;70.29
31717;BME280;18301;51.076;17.046;2023-02-22T21:10:17;100300.31;;;5.82;70.12
31717;BME280;18301;51.076;17.046;2023-02-22T21:15:21;100289.66;;;5.97;69.91
31717;BME280;18301;51.076;17.046;2023-02-22T21:20:26;100294.44;;;5.91;69.98
31717;BME280;18301;51.076;17.046;2023-02-22T21:25:27;100295.47;;;5.72;70.42
31717;BME280;18301;51.076;17.046;2023-02-22T21:30:31;100276.50;;;5.93;69.97
31717;BME280;18301;51.076;17.046;2023-02-22T21:35:34;100282.34;;;5.68;70.35
31717;BME280;18301;51.076;17.046;2023-02-22T21:40:41;100282.19;;;5.87;70.03
31717;BME280;18301;51.076;17.046;2023-02-22T21:45:42;100275.34;;;5.81;70.44
31717;BME280;18301;51.076;17.046;2023-02-22T21:50:44;100278.47;;;5.73;70.34
31717;BME280;18301;51.076;17.046;2023-02-22T21:55:45;100271.97;;;5.77;70.50
31717;BME280;18301;51.076;17.046;2023-02-22T22:00:47;100273.88;;;5.75;70.61
31717;BME280;18301;51.076;17.046;2023-02-22T22:05:48;100267.06;;;5.86;70.33
31717;BME280;18301;51.076;17.046;2023-02-22T22:10:53;100265.94;;;5.90;70.16
31717;BME280;18301;51.076;17.046;2023-02-22T22:16:02;100267.13;;;5.68;70.55
31717;BME280;18301;51.076;17.046;2023-02-22T22:21:09;100259.28;;;5.65;70.38
31717;BME280;18301;51.076;17.046;2023-02-22T22:26:12;100252.91;;;5.52;71.34
31717;BME280;18301;51.076;17.046;2023-02-22T22:31:15;100252.72;;;5.39;70.78
31717;BME280;18301;51.076;17.046;2023-02-22T22:36:19;100242.41;;;5.31;70.80
31717;BME280;18301;51.076;17.046;2023-02-22T22:41:24;100238.75;;;5.17;71.72
31717;BME280;18301;51.076;17.046;2023-02-22T22:46:28;100236.53;;;5.25;71.47
31717;BME280;18301;51.076;17.046;2023-02-22T22:51:29;100237.31;;;4.94;72.27
31717;BME280;18301;51.076;17.046;2023-02-22T22:56:34;100235.28;;;4.99;71.92
31717;BME280;18301;51.076;17.046;2023-02-22T23:01:41;100231.75;;;4.81;72.53
31717;BME280;18301;51.076;17.046;2023-02-22T23:06:49;100231.81;;;4.79;72.96
31717;BME280;18301;51.076;17.046;2023-02-22T23:11:56;100229.31;;;4.76;73.04
31717;BME280;18301;51.076;17.046;2023-02-22T23:16:59;100226.75;;;4.75;72.22
31717;BME280;18301;51.076;17.046;2023-02-22T23:22:04;100228.28;;;4.79;73.09
31717;BME280;18301;51.076;17.046;2023-02-22T23:27:07;100230.75;;;4.83;72.71
31717;BME280;18301;51.076;17.046;2023-02-22T23:32:10;100226.03;;;4.71;72.88
31717;BME280;18301;51.076;17.046;2023-02-22T23:37:15;100228.56;;;4.57;73.04
31717;BME280;18301;51.076;17.046;2023-02-22T23:42:19;100227.06;;;4.69;72.25
31717;BME280;18301;51.076;17.046;2023-02-22T23:47:23;100225.88;;;4.57;72.89
31717;BME280;18301;51.076;17.046;2023-02-22T23:52:24;100218.19;;;4.51;72.84
31717;BME280;18301;51.076;17.046;2023-02-22T23:57:30;100212.38;;;4.60;72.96
